TFM - Tactical Decision Aid
ID: Runway Winds: CIG/VIS Threshold:

KMEM - Memphis Intl, TN, US

Updated at: 0105 UTC 12 May 2021
Latest TAF at: 2334 UTC 11 May 2021

TAF Board

Time0054Z 12/02Z 12/03Z 12/04Z 12/05Z 12/06Z 12/07Z 12/08Z 12/09Z 12/10Z 12/11Z 12/12Z 12/13Z 12/14Z>>
Type OBS PRVL
  [TEMP]  
PRVL
  [TEMP]  
PRVL PRVL PRVL PRVL PRVL PRVL PRVL PRVL PRVL PRVL PRVL
VIS 7 >6 >6 >6 >6 >6 >6 >6 >6 >6 >6 >6 >6 >6
CIG 90 50
  [25]  
50
  [25]  
50 50 50 50 35 35 35 35 35 50 50
Cover OVC OVC
  [BKN]  
OVC
  [BKN]  
OVC OVC OVC OVC OVC OVC OVC OVC OVC BKN BKN
FltCat VFR VFR
  [MVFR]  
VFR
  [MVFR]  
VFR VFR VFR VFR VFR VFR VFR VFR VFR VFR VFR
WX RA VCSH
  [--]  
VCSH
  [--]  
VCSH VCSH VCSH VCSH VCSH VCSH VCSH VCSH VCSH -- --
WDir 360 80
[80]
80
[80]
50 50 50 50 40 40 40 40 40 40 40
WSpd 10 11
  [11]  
11
  [11]  
13 13 13 13 12 12 12 12 12 12 12
WGst -- --
  [--]  
--
  [--]  
20 20 20 20 -- -- -- -- -- -- --

TDA Impact Legend

  None Marginal Slight Moderate High
Visibility (sm) >5 3≤X≤5 1≤X<3 0.5≤X<1 <0.5
Ceiling (100 ft) >30 10≤X≤30 4≤X<10 2≤X<4 <2
Wind Speed (kt) <15 15≤X<25 25≤X<30 ≥30
Wind Gust (kt) <15 15≤X<25 25≤X<35 ≥35
Weather No Wx Reported VCTS -TS,-FZRA TS,FZRA +TS,+FZRA
TAF
KMEM 112334Z 1200/1306 08011KT P6SM VCSH OVC050
  TEMPO 1201/1204 BKN025
  FM120400 05013G20KT P6SM VCSH SCT025 OVC050
  FM120800 04012KT P6SM VCSH SCT025 OVC035
  FM121300 04012KT P6SM BKN050
  FM122100 03010KT P6SM OVC100


METAR
KMEM 120054Z 36010KT 7SM RA SCT075 OVC090 14/12 A3019 RMK AO2 SLP221 P0010 T01390122 $
KMEM 112354Z 35009KT 9SM -RA SCT060 BKN090 OVC100 14/12 A3016 RMK AO2 RAB07 SLP212 P0005 60005 T01440122 10206 20144 53028 $
KMEM 112254Z 36007KT 10SM OVC049 18/09 A3012 RMK AO2 LTG DSNT SW PRESRR SLP197 T01830089 $
KMEM 112154Z 08011KT 10SM OVC048 19/08 A3006 RMK AO2 SLP177 T01890083 $

Radar Display
Forecast Discussion